NSZ4363 ESSA-LICJ
Flight info
| Callsign | NSZ4363 |
|---|---|
| Flight time | 3h 29m |
| Altitude | 34000 |
| Route | NOSLI N850 ABAMA DCT KOTAM DCT DETNI DCT CIPPI/N0446F350 N33 PADKU DCT GERGA M725 HDO DCT OKL DCT BUDEX DCT TIVAP DCT EKMOT DCT MOLUX DCT BEDPI DCT AMANO DCT ROSAS |
| Aircraft | B738/M-SDE2E3GHIJ1LRWXY/LB1 |
Departure
| Time | 2026-05-06 12:37 |
|---|---|
| Airport | Stockholm-Arlanda Airport (ESSA) |
Arrival
| Time | 2026-05-06 16:07 |
|---|---|
| Airport | Falcone–Borsellino Airport (LICJ) |
| Time | Latitude | Longitude | Altitude | Speed | Heading |
|---|---|---|---|---|---|
| 2026-05-06 12:15 | 59.64779 | 17.92399 | 111 ft | 0 kts | 43° |
| 2026-05-06 12:25 | 59.64776 | 17.92391 | 111 ft | 4 kts | 41° |
| 2026-05-06 12:25 | 59.64762 | 17.92371 | 109 ft | 4 kts | 22° |
| 2026-05-06 12:25 | 59.64740 | 17.92358 | 109 ft | 4 kts | 9° |
| 2026-05-06 12:26 | 59.64717 | 17.92363 | 108 ft | 4 kts | 313° |
| 2026-05-06 12:26 | 59.64706 | 17.92405 | 111 ft | 4 kts | 285° |
| 2026-05-06 12:26 | 59.64704 | 17.92419 | 111 ft | 0 kts | 285° |
| 2026-05-06 12:30 | 59.64707 | 17.92398 | 111 ft | 4 kts | 285° |
| 2026-05-06 12:31 | 59.64716 | 17.92333 | 108 ft | 5 kts | 285° |
| 2026-05-06 12:31 | 59.64726 | 17.92266 | 109 ft | 5 kts | 286° |
| 2026-05-06 12:31 | 59.64738 | 17.92184 | 110 ft | 9 kts | 286° |
| 2026-05-06 12:31 | 59.64802 | 17.92072 | 106 ft | 16 kts | 9° |
| 2026-05-06 12:32 | 59.64911 | 17.92113 | 105 ft | 16 kts | 11° |
| 2026-05-06 12:32 | 59.65017 | 17.92152 | 106 ft | 15 kts | 10° |
| 2026-05-06 12:32 | 59.65123 | 17.92190 | 106 ft | 16 kts | 10° |
| 2026-05-06 12:32 | 59.65229 | 17.92228 | 106 ft | 15 kts | 10° |
| 2026-05-06 12:33 | 59.65332 | 17.92265 | 104 ft | 15 kts | 10° |
| 2026-05-06 12:33 | 59.65434 | 17.92301 | 103 ft | 15 kts | 10° |
| 2026-05-06 12:33 | 59.65531 | 17.92337 | 104 ft | 14 kts | 11° |
| 2026-05-06 12:33 | 59.65624 | 17.92372 | 103 ft | 14 kts | 11° |
| 2026-05-06 12:34 | 59.65724 | 17.92407 | 104 ft | 16 kts | 9° |
| 2026-05-06 12:34 | 59.65840 | 17.92451 | 105 ft | 18 kts | 11° |
| 2026-05-06 12:34 | 59.65964 | 17.92499 | 108 ft | 19 kts | 11° |
| 2026-05-06 12:34 | 59.66096 | 17.92544 | 110 ft | 19 kts | 9° |
| 2026-05-06 12:35 | 59.66226 | 17.92586 | 114 ft | 19 kts | 9° |
| 2026-05-06 12:35 | 59.66352 | 17.92627 | 118 ft | 18 kts | 9° |
| 2026-05-06 12:35 | 59.66472 | 17.92653 | 122 ft | 16 kts | 348° |
| 2026-05-06 12:35 | 59.66575 | 17.92585 | 121 ft | 16 kts | 340° |
| 2026-05-06 12:36 | 59.66621 | 17.92429 | 123 ft | 4 kts | 262° |
| 2026-05-06 12:36 | 59.66609 | 17.92370 | 119 ft | 5 kts | 222° |
| 2026-05-06 12:36 | 59.66555 | 17.92345 | 122 ft | 23 kts | 189° |
| 2026-05-06 12:36 | 59.66148 | 17.92198 | 116 ft | 95 kts | 190° |
| 2026-05-06 12:37 | 59.65288 | 17.91887 | 108 ft | 154 kts | 192° |
| 2026-05-06 12:37 | 59.64146 | 17.91464 | 567 ft | 170 kts | 192° |
| 2026-05-06 12:37 | 59.62952 | 17.91011 | 1302 ft | 180 kts | 193° |
| 2026-05-06 12:37 | 59.61733 | 17.90423 | 2142 ft | 180 kts | 200° |
| 2026-05-06 12:38 | 59.60691 | 17.89119 | 2828 ft | 188 kts | 236° |
| 2026-05-06 12:38 | 59.60055 | 17.86710 | 3087 ft | 209 kts | 242° |
| 2026-05-06 12:38 | 59.59304 | 17.84192 | 3555 ft | 214 kts | 237° |
| 2026-05-06 12:38 | 59.58496 | 17.81675 | 4118 ft | 218 kts | 242° |
| 2026-05-06 12:39 | 59.57824 | 17.78814 | 4314 ft | 242 kts | 245° |
| 2026-05-06 12:39 | 59.57076 | 17.75691 | 4799 ft | 257 kts | 242° |
| 2026-05-06 12:39 | 59.55912 | 17.73082 | 5637 ft | 258 kts | 212° |
| 2026-05-06 12:39 | 59.54306 | 17.71400 | 6440 ft | 261 kts | 207° |
| 2026-05-06 12:40 | 59.52681 | 17.69814 | 7302 ft | 262 kts | 207° |
| 2026-05-06 12:40 | 59.51032 | 17.68220 | 8013 ft | 266 kts | 208° |
| 2026-05-06 12:40 | 59.49358 | 17.66601 | 8771 ft | 270 kts | 208° |
| 2026-05-06 12:40 | 59.47664 | 17.64962 | 9563 ft | 273 kts | 209° |
| 2026-05-06 12:41 | 59.45975 | 17.63320 | 10257 ft | 277 kts | 210° |
| 2026-05-06 12:41 | 59.44183 | 17.61565 | 10488 ft | 299 kts | 210° |
| 2026-05-06 12:41 | 59.42254 | 17.59670 | 10669 ft | 321 kts | 210° |
| 2026-05-06 12:41 | 59.40165 | 17.57622 | 10905 ft | 340 kts | 210° |
| 2026-05-06 12:42 | 59.38048 | 17.55553 | 11421 ft | 348 kts | 210° |
| 2026-05-06 12:42 | 59.35876 | 17.53436 | 12096 ft | 351 kts | 210° |
| 2026-05-06 12:42 | 59.33678 | 17.51298 | 12810 ft | 354 kts | 210° |
| 2026-05-06 12:42 | 59.31459 | 17.49140 | 13494 ft | 358 kts | 210° |
| 2026-05-06 12:43 | 59.29219 | 17.46962 | 14113 ft | 361 kts | 211° |
| 2026-05-06 12:43 | 59.26945 | 17.44751 | 14800 ft | 360 kts | 210° |
| 2026-05-06 12:43 | 59.24726 | 17.42604 | 15512 ft | 360 kts | 210° |
| 2026-05-06 12:43 | 59.22482 | 17.40430 | 16180 ft | 361 kts | 210° |
| 2026-05-06 12:44 | 59.20225 | 17.38247 | 16837 ft | 362 kts | 210° |
| 2026-05-06 12:44 | 59.17960 | 17.36059 | 17480 ft | 364 kts | 210° |
| 2026-05-06 12:44 | 59.15688 | 17.33866 | 18123 ft | 365 kts | 211° |
| 2026-05-06 12:44 | 59.13405 | 17.31665 | 18693 ft | 367 kts | 211° |
| 2026-05-06 12:45 | 59.11116 | 17.29464 | 19254 ft | 367 kts | 211° |
| 2026-05-06 12:45 | 59.08820 | 17.27260 | 19817 ft | 368 kts | 211° |
| 2026-05-06 12:45 | 59.04606 | 17.21813 | 20890 ft | 363 kts | 224° |
| 2026-05-06 12:46 | 59.02681 | 17.18631 | 21389 ft | 364 kts | 224° |
| 2026-05-06 12:46 | 59.00744 | 17.15412 | 21828 ft | 368 kts | 224° |
| 2026-05-06 12:46 | 58.98794 | 17.12193 | 22343 ft | 368 kts | 224° |
| 2026-05-06 12:46 | 58.96832 | 17.08987 | 22889 ft | 369 kts | 224° |
| 2026-05-06 12:47 | 58.94862 | 17.05796 | 23375 ft | 370 kts | 224° |
| 2026-05-06 12:47 | 58.92879 | 17.02601 | 23786 ft | 372 kts | 224° |
| 2026-05-06 12:47 | 58.90887 | 16.99406 | 24174 ft | 373 kts | 223° |
| 2026-05-06 12:47 | 58.88884 | 16.96205 | 24571 ft | 374 kts | 223° |
| 2026-05-06 12:48 | 58.86879 | 16.93007 | 24955 ft | 374 kts | 223° |
| 2026-05-06 12:48 | 58.84864 | 16.89798 | 25325 ft | 376 kts | 223° |
| 2026-05-06 12:48 | 58.82847 | 16.86590 | 25679 ft | 377 kts | 223° |
| 2026-05-06 12:48 | 58.80819 | 16.83370 | 26031 ft | 378 kts | 223° |
| 2026-05-06 12:49 | 58.78785 | 16.80146 | 26348 ft | 379 kts | 222° |
| 2026-05-06 12:49 | 58.76739 | 16.76907 | 26570 ft | 384 kts | 221° |
| 2026-05-06 12:49 | 58.74668 | 16.73633 | 26847 ft | 386 kts | 221° |
| 2026-05-06 12:49 | 58.72593 | 16.70360 | 27214 ft | 386 kts | 221° |
| 2026-05-06 12:50 | 58.70516 | 16.67088 | 27568 ft | 386 kts | 221° |
| 2026-05-06 12:50 | 58.68431 | 16.63808 | 27877 ft | 387 kts | 221° |
| 2026-05-06 12:50 | 58.66341 | 16.60525 | 28169 ft | 389 kts | 221° |
| 2026-05-06 12:50 | 58.64251 | 16.57246 | 28554 ft | 388 kts | 221° |
| 2026-05-06 12:51 | 58.62172 | 16.53993 | 29058 ft | 384 kts | 220° |
| 2026-05-06 12:51 | 58.60110 | 16.50772 | 29577 ft | 380 kts | 220° |
| 2026-05-06 12:51 | 58.58064 | 16.47585 | 30045 ft | 378 kts | 221° |
| 2026-05-06 12:51 | 58.56022 | 16.44408 | 30359 ft | 378 kts | 221° |
| 2026-05-06 12:52 | 58.54007 | 16.41272 | 30576 ft | 379 kts | 220° |
| 2026-05-06 12:52 | 58.51929 | 16.38041 | 30733 ft | 382 kts | 220° |
| 2026-05-06 12:52 | 58.49867 | 16.34840 | 31015 ft | 381 kts | 220° |
| 2026-05-06 12:52 | 58.47838 | 16.31697 | 31386 ft | 379 kts | 220° |
| 2026-05-06 12:53 | 58.45768 | 16.28496 | 31699 ft | 378 kts | 220° |
| 2026-05-06 12:53 | 58.43751 | 16.25381 | 31925 ft | 378 kts | 220° |
| 2026-05-06 12:53 | 58.41704 | 16.22225 | 32195 ft | 378 kts | 220° |
| 2026-05-06 12:53 | 58.39630 | 16.19031 | 32517 ft | 377 kts | 220° |
| 2026-05-06 12:54 | 58.37618 | 16.15938 | 32770 ft | 377 kts | 220° |
| 2026-05-06 12:54 | 58.35550 | 16.12765 | 33024 ft | 376 kts | 220° |
| 2026-05-06 12:54 | 58.33513 | 16.09642 | 33296 ft | 376 kts | 220° |
| 2026-05-06 12:54 | 58.31504 | 16.06567 | 33556 ft | 376 kts | 220° |
| 2026-05-06 12:55 | 58.29467 | 16.03449 | 33728 ft | 376 kts | 220° |
| 2026-05-06 12:55 | 58.27424 | 16.00345 | 33927 ft | 377 kts | 219° |
| 2026-05-06 12:55 | 58.25379 | 15.97219 | 34077 ft | 378 kts | 220° |
| 2026-05-06 12:56 | 58.21271 | 15.90887 | 34324 ft | 382 kts | 219° |
| 2026-05-06 12:56 | 58.19192 | 15.87767 | 34493 ft | 382 kts | 219° |
| 2026-05-06 12:56 | 58.17108 | 15.84640 | 34658 ft | 382 kts | 219° |
| 2026-05-06 12:56 | 58.15020 | 15.81502 | 34810 ft | 383 kts | 219° |
| 2026-05-06 12:57 | 58.12929 | 15.78354 | 34939 ft | 384 kts | 219° |
| 2026-05-06 12:57 | 58.08725 | 15.72024 | 34960 ft | 387 kts | 219° |
| 2026-05-06 12:58 | 58.04535 | 15.65730 | 34936 ft | 383 kts | 218° |
| 2026-05-06 12:58 | 58.00295 | 15.59695 | 34942 ft | 381 kts | 211° |
| 2026-05-06 12:59 | 57.95453 | 15.55637 | 34942 ft | 384 kts | 199° |
| 2026-05-06 12:59 | 57.90223 | 15.53395 | 34949 ft | 386 kts | 195° |
| 2026-05-06 13:00 | 57.84952 | 15.51271 | 34958 ft | 389 kts | 195° |
| 2026-05-06 13:00 | 57.79647 | 15.49115 | 34965 ft | 391 kts | 196° |
| 2026-05-06 13:01 | 57.74355 | 15.46950 | 34961 ft | 393 kts | 195° |
| 2026-05-06 13:01 | 57.68996 | 15.44755 | 34958 ft | 395 kts | 195° |
| 2026-05-06 13:02 | 57.63614 | 15.42556 | 34949 ft | 397 kts | 195° |
| 2026-05-06 13:02 | 57.58221 | 15.40359 | 34947 ft | 397 kts | 195° |
| 2026-05-06 13:03 | 57.52825 | 15.38168 | 34933 ft | 397 kts | 195° |
| 2026-05-06 13:03 | 57.47442 | 15.35989 | 34946 ft | 396 kts | 195° |
| 2026-05-06 13:04 | 57.42065 | 15.33817 | 34945 ft | 395 kts | 195° |
| 2026-05-06 13:04 | 57.36694 | 15.31656 | 34944 ft | 395 kts | 195° |
| 2026-05-06 13:05 | 57.31327 | 15.29502 | 34951 ft | 394 kts | 195° |
| 2026-05-06 13:05 | 57.25966 | 15.27358 | 34917 ft | 394 kts | 194° |
| 2026-05-06 13:06 | 57.20615 | 15.25224 | 34936 ft | 394 kts | 194° |
| 2026-05-06 13:06 | 57.15251 | 15.23089 | 34946 ft | 394 kts | 194° |
| 2026-05-06 13:07 | 57.09878 | 15.20957 | 34943 ft | 396 kts | 194° |
| 2026-05-06 13:07 | 57.04485 | 15.18825 | 34940 ft | 397 kts | 194° |
| 2026-05-06 13:08 | 56.99078 | 15.16693 | 34913 ft | 398 kts | 193° |
| 2026-05-06 13:08 | 56.93653 | 15.14562 | 34932 ft | 399 kts | 193° |
| 2026-05-06 13:09 | 56.88209 | 15.12428 | 34940 ft | 401 kts | 193° |
| 2026-05-06 13:09 | 56.82738 | 15.10290 | 34940 ft | 403 kts | 193° |
| 2026-05-06 13:10 | 56.77252 | 15.08153 | 34933 ft | 404 kts | 193° |
| 2026-05-06 13:10 | 56.71744 | 15.06013 | 34922 ft | 405 kts | 193° |
| 2026-05-06 13:11 | 56.66235 | 15.03881 | 34947 ft | 405 kts | 193° |
| 2026-05-06 13:11 | 56.60744 | 15.01761 | 34938 ft | 406 kts | 193° |
| 2026-05-06 13:12 | 56.55171 | 14.99616 | 34931 ft | 407 kts | 193° |
| 2026-05-06 13:12 | 56.49667 | 14.97503 | 34930 ft | 407 kts | 193° |
| 2026-05-06 13:13 | 56.45028 | 14.95728 | 34920 ft | 407 kts | 193° |
| 2026-05-06 13:13 | 56.38574 | 14.93265 | 34937 ft | 408 kts | 193° |
| 2026-05-06 13:14 | 56.33022 | 14.91153 | 34941 ft | 409 kts | 193° |
| 2026-05-06 13:14 | 56.28355 | 14.89383 | 34942 ft | 410 kts | 193° |
| 2026-05-06 13:15 | 56.22803 | 14.87283 | 34946 ft | 411 kts | 193° |
| 2026-05-06 13:15 | 56.17203 | 14.85169 | 34938 ft | 412 kts | 192° |
| 2026-05-06 13:16 | 56.11590 | 14.83035 | 34941 ft | 413 kts | 193° |
| 2026-05-06 13:16 | 56.05990 | 14.80711 | 34942 ft | 414 kts | 194° |
| 2026-05-06 13:17 | 56.00364 | 14.78333 | 34938 ft | 415 kts | 194° |
| 2026-05-06 13:17 | 55.94731 | 14.75976 | 34929 ft | 416 kts | 193° |
| 2026-05-06 13:18 | 55.89088 | 14.73636 | 34940 ft | 417 kts | 193° |
| 2026-05-06 13:18 | 55.83433 | 14.71302 | 34941 ft | 418 kts | 193° |
| 2026-05-06 13:19 | 55.77757 | 14.68968 | 34938 ft | 419 kts | 193° |
| 2026-05-06 13:19 | 55.72078 | 14.66640 | 34934 ft | 419 kts | 193° |
| 2026-05-06 13:20 | 55.66390 | 14.64314 | 34927 ft | 420 kts | 193° |
| 2026-05-06 13:20 | 55.60698 | 14.61993 | 34934 ft | 420 kts | 193° |
| 2026-05-06 13:21 | 55.55003 | 14.59679 | 34936 ft | 420 kts | 193° |
| 2026-05-06 13:21 | 55.49301 | 14.57368 | 34928 ft | 420 kts | 193° |
| 2026-05-06 13:22 | 55.43595 | 14.55062 | 34926 ft | 421 kts | 193° |
| 2026-05-06 13:22 | 55.37893 | 14.52765 | 34922 ft | 421 kts | 193° |
| 2026-05-06 13:23 | 55.32186 | 14.50473 | 34921 ft | 421 kts | 193° |
| 2026-05-06 13:23 | 55.26478 | 14.48177 | 34902 ft | 421 kts | 194° |
| 2026-05-06 13:24 | 55.20777 | 14.45906 | 34917 ft | 420 kts | 194° |
| 2026-05-06 13:24 | 55.15111 | 14.43656 | 34914 ft | 420 kts | 194° |
| 2026-05-06 13:25 | 55.09406 | 14.41391 | 34915 ft | 420 kts | 194° |
| 2026-05-06 13:25 | 55.03705 | 14.39133 | 34912 ft | 420 kts | 194° |
| 2026-05-06 13:26 | 54.98002 | 14.36881 | 34917 ft | 420 kts | 194° |
| 2026-05-06 13:26 | 54.92289 | 14.34632 | 34907 ft | 420 kts | 194° |
| 2026-05-06 13:27 | 54.86565 | 14.32519 | 34909 ft | 421 kts | 192° |
| 2026-05-06 13:27 | 54.80824 | 14.30525 | 34909 ft | 421 kts | 192° |
| 2026-05-06 13:28 | 54.75079 | 14.28526 | 34904 ft | 421 kts | 192° |
| 2026-05-06 13:28 | 54.69336 | 14.26516 | 34901 ft | 421 kts | 192° |
| 2026-05-06 13:29 | 54.63597 | 14.24506 | 34890 ft | 421 kts | 193° |
| 2026-05-06 13:29 | 54.57840 | 14.22493 | 34893 ft | 422 kts | 193° |
| 2026-05-06 13:30 | 54.52090 | 14.20498 | 34890 ft | 422 kts | 193° |
| 2026-05-06 13:30 | 54.46334 | 14.18496 | 34882 ft | 422 kts | 193° |
| 2026-05-06 13:31 | 54.40578 | 14.16501 | 34878 ft | 422 kts | 193° |
| 2026-05-06 13:31 | 54.34821 | 14.14512 | 34886 ft | 422 kts | 193° |
| 2026-05-06 13:32 | 54.29063 | 14.12528 | 34878 ft | 422 kts | 193° |
| 2026-05-06 13:32 | 54.23299 | 14.10549 | 34878 ft | 422 kts | 193° |
| 2026-05-06 13:33 | 54.17488 | 14.09033 | 34868 ft | 423 kts | 188° |
| 2026-05-06 13:33 | 54.11641 | 14.08050 | 34862 ft | 422 kts | 188° |
| 2026-05-06 13:34 | 54.05790 | 14.07066 | 34862 ft | 422 kts | 188° |
| 2026-05-06 13:34 | 53.99915 | 14.06794 | 34873 ft | 425 kts | 179° |
| 2026-05-06 13:35 | 53.94000 | 14.07502 | 34859 ft | 426 kts | 178° |
| 2026-05-06 13:35 | 53.88129 | 14.08210 | 34847 ft | 425 kts | 179° |
| 2026-05-06 13:36 | 53.82191 | 14.08866 | 34853 ft | 424 kts | 179° |
| 2026-05-06 13:36 | 53.76304 | 14.09483 | 34857 ft | 424 kts | 179° |
| 2026-05-06 13:37 | 53.70421 | 14.10088 | 34854 ft | 423 kts | 179° |
| 2026-05-06 13:37 | 53.64545 | 14.10690 | 34847 ft | 423 kts | 180° |
| 2026-05-06 13:38 | 53.58680 | 14.11291 | 34836 ft | 422 kts | 180° |
| 2026-05-06 13:38 | 53.52857 | 14.11888 | 34826 ft | 421 kts | 180° |
| 2026-05-06 13:39 | 53.46977 | 14.12486 | 34824 ft | 420 kts | 180° |
| 2026-05-06 13:39 | 53.41143 | 14.13078 | 34828 ft | 420 kts | 180° |
| 2026-05-06 13:40 | 53.35353 | 14.13664 | 34810 ft | 419 kts | 180° |
| 2026-05-06 13:40 | 53.29539 | 14.14252 | 34818 ft | 418 kts | 180° |
| 2026-05-06 13:41 | 53.23737 | 14.14837 | 34823 ft | 418 kts | 180° |
| 2026-05-06 13:41 | 53.17930 | 14.15420 | 34816 ft | 418 kts | 180° |
| 2026-05-06 13:42 | 53.12120 | 14.16002 | 34808 ft | 418 kts | 180° |
| 2026-05-06 13:42 | 53.06322 | 14.16582 | 34816 ft | 417 kts | 180° |
| 2026-05-06 13:43 | 53.00519 | 14.17161 | 34809 ft | 418 kts | 180° |
| 2026-05-06 13:43 | 52.94724 | 14.17737 | 34809 ft | 417 kts | 180° |
| 2026-05-06 13:44 | 52.88923 | 14.18312 | 34803 ft | 417 kts | 180° |
| 2026-05-06 13:44 | 52.83122 | 14.18886 | 34811 ft | 417 kts | 180° |
| 2026-05-06 13:45 | 52.77329 | 14.19457 | 34807 ft | 417 kts | 180° |
| 2026-05-06 13:45 | 52.68640 | 14.20313 | 34795 ft | 417 kts | 181° |
| 2026-05-06 13:46 | 52.62852 | 14.20879 | 34798 ft | 416 kts | 181° |
| 2026-05-06 13:46 | 52.57075 | 14.21444 | 34800 ft | 415 kts | 181° |
| 2026-05-06 13:47 | 52.51306 | 14.22006 | 34798 ft | 415 kts | 181° |
| 2026-05-06 13:47 | 52.45544 | 14.22566 | 34800 ft | 415 kts | 181° |
| 2026-05-06 13:48 | 52.39787 | 14.23124 | 34798 ft | 415 kts | 181° |
| 2026-05-06 13:48 | 52.34028 | 14.23681 | 34795 ft | 414 kts | 181° |
| 2026-05-06 13:49 | 52.28277 | 14.24235 | 34800 ft | 414 kts | 181° |
| 2026-05-06 13:49 | 52.22522 | 14.24789 | 34798 ft | 414 kts | 181° |
| 2026-05-06 13:50 | 52.16760 | 14.25341 | 34795 ft | 415 kts | 181° |
| 2026-05-06 13:50 | 52.11004 | 14.25892 | 34783 ft | 415 kts | 181° |
| 2026-05-06 13:51 | 52.05235 | 14.26442 | 34792 ft | 416 kts | 181° |
| 2026-05-06 13:51 | 51.99451 | 14.26993 | 34793 ft | 417 kts | 181° |
| 2026-05-06 13:52 | 51.93659 | 14.27543 | 34794 ft | 418 kts | 181° |
| 2026-05-06 13:52 | 51.87850 | 14.28093 | 34781 ft | 418 kts | 181° |
| 2026-05-06 13:53 | 51.82040 | 14.28642 | 34783 ft | 418 kts | 181° |
| 2026-05-06 13:53 | 51.76234 | 14.29190 | 34784 ft | 417 kts | 181° |
| 2026-05-06 13:54 | 51.70441 | 14.29735 | 34781 ft | 416 kts | 181° |
| 2026-05-06 13:54 | 51.64702 | 14.30273 | 34768 ft | 415 kts | 181° |
| 2026-05-06 13:55 | 51.58955 | 14.30811 | 34772 ft | 413 kts | 181° |
| 2026-05-06 13:55 | 51.53223 | 14.31346 | 34775 ft | 412 kts | 181° |
| 2026-05-06 13:56 | 51.47511 | 14.31877 | 34773 ft | 411 kts | 181° |
| 2026-05-06 13:56 | 51.41813 | 14.32406 | 34775 ft | 409 kts | 181° |
| 2026-05-06 13:57 | 51.36132 | 14.32931 | 34767 ft | 408 kts | 181° |
| 2026-05-06 13:57 | 51.30462 | 14.33455 | 34781 ft | 408 kts | 181° |
| 2026-05-06 13:58 | 51.24797 | 14.33977 | 34767 ft | 408 kts | 181° |
| 2026-05-06 13:58 | 51.19119 | 14.34498 | 34771 ft | 409 kts | 181° |
| 2026-05-06 13:59 | 51.13439 | 14.35018 | 34763 ft | 410 kts | 181° |
| 2026-05-06 13:59 | 51.08661 | 14.35455 | 34753 ft | 410 kts | 181° |
| 2026-05-06 14:00 | 51.02995 | 14.35972 | 34764 ft | 411 kts | 181° |
| 2026-05-06 14:00 | 50.97276 | 14.36493 | 34767 ft | 412 kts | 181° |
| 2026-05-06 14:01 | 50.91542 | 14.36864 | 34747 ft | 410 kts | 187° |
| 2026-05-06 14:01 | 50.85862 | 14.36173 | 34764 ft | 410 kts | 189° |
| 2026-05-06 14:02 | 50.80177 | 14.35368 | 34771 ft | 411 kts | 189° |
| 2026-05-06 14:02 | 50.74477 | 14.34610 | 34768 ft | 411 kts | 188° |
| 2026-05-06 14:03 | 50.68768 | 14.33887 | 34761 ft | 412 kts | 188° |
| 2026-05-06 14:03 | 50.63065 | 14.33178 | 34770 ft | 410 kts | 189° |
| 2026-05-06 14:04 | 50.57379 | 14.32472 | 34767 ft | 409 kts | 189° |
| 2026-05-06 14:04 | 50.51713 | 14.31771 | 34779 ft | 408 kts | 189° |
| 2026-05-06 14:05 | 50.46062 | 14.31072 | 34783 ft | 407 kts | 189° |
| 2026-05-06 14:05 | 50.40435 | 14.30378 | 34785 ft | 405 kts | 189° |
| 2026-05-06 14:06 | 50.34827 | 14.29687 | 34793 ft | 404 kts | 189° |
| 2026-05-06 14:06 | 50.29233 | 14.29000 | 34800 ft | 402 kts | 189° |
| 2026-05-06 14:07 | 50.23659 | 14.28317 | 34804 ft | 402 kts | 189° |
| 2026-05-06 14:07 | 50.18091 | 14.27636 | 34774 ft | 401 kts | 189° |
| 2026-05-06 14:08 | 50.12524 | 14.26956 | 34773 ft | 402 kts | 189° |
| 2026-05-06 14:08 | 50.06926 | 14.26615 | 34777 ft | 405 kts | 183° |
| 2026-05-06 14:09 | 50.01281 | 14.27001 | 34752 ft | 407 kts | 182° |
| 2026-05-06 14:09 | 49.95624 | 14.27429 | 34769 ft | 407 kts | 183° |
| 2026-05-06 14:10 | 49.89971 | 14.27814 | 34782 ft | 407 kts | 183° |
| 2026-05-06 14:10 | 49.84309 | 14.28171 | 34781 ft | 407 kts | 183° |
| 2026-05-06 14:11 | 49.78648 | 14.28521 | 34783 ft | 408 kts | 183° |
| 2026-05-06 14:11 | 49.72973 | 14.28869 | 34773 ft | 408 kts | 183° |
| 2026-05-06 14:12 | 49.67304 | 14.29218 | 34776 ft | 407 kts | 183° |
| 2026-05-06 14:12 | 49.61644 | 14.29564 | 34777 ft | 407 kts | 183° |
| 2026-05-06 14:13 | 49.56024 | 14.29908 | 34776 ft | 406 kts | 183° |
| 2026-05-06 14:13 | 49.50380 | 14.30240 | 34768 ft | 405 kts | 184° |
| 2026-05-06 14:14 | 49.44754 | 14.30588 | 34774 ft | 405 kts | 184° |
| 2026-05-06 14:14 | 49.39129 | 14.30935 | 34774 ft | 404 kts | 184° |
| 2026-05-06 14:15 | 49.33510 | 14.31277 | 34768 ft | 404 kts | 184° |
| 2026-05-06 14:15 | 49.27899 | 14.31616 | 34757 ft | 403 kts | 184° |
| 2026-05-06 14:16 | 49.22300 | 14.31954 | 34763 ft | 402 kts | 184° |
| 2026-05-06 14:16 | 49.16713 | 14.32290 | 34751 ft | 402 kts | 184° |
| 2026-05-06 14:17 | 49.11110 | 14.32625 | 34766 ft | 403 kts | 184° |
| 2026-05-06 14:17 | 49.05509 | 14.32961 | 34759 ft | 403 kts | 184° |
| 2026-05-06 14:18 | 48.99905 | 14.33296 | 34757 ft | 403 kts | 184° |
| 2026-05-06 14:18 | 48.94293 | 14.33687 | 34753 ft | 406 kts | 180° |
| 2026-05-06 14:19 | 48.88687 | 14.35082 | 34765 ft | 410 kts | 176° |
| 2026-05-06 14:19 | 48.83085 | 14.36688 | 34751 ft | 410 kts | 176° |
| 2026-05-06 14:20 | 48.77489 | 14.38195 | 34754 ft | 408 kts | 177° |
| 2026-05-06 14:20 | 48.71894 | 14.39562 | 34759 ft | 403 kts | 182° |
| 2026-05-06 14:21 | 48.66332 | 14.39986 | 34756 ft | 399 kts | 184° |
| 2026-05-06 14:21 | 48.60784 | 14.40275 | 34745 ft | 399 kts | 185° |
| 2026-05-06 14:22 | 48.55241 | 14.40593 | 34755 ft | 398 kts | 184° |
| 2026-05-06 14:22 | 48.49713 | 14.40941 | 34732 ft | 397 kts | 184° |
| 2026-05-06 14:23 | 48.44191 | 14.41299 | 34735 ft | 397 kts | 184° |
| 2026-05-06 14:23 | 48.38702 | 14.41659 | 34727 ft | 397 kts | 184° |
| 2026-05-06 14:24 | 48.33177 | 14.42022 | 34719 ft | 397 kts | 184° |
| 2026-05-06 14:24 | 48.27669 | 14.42383 | 34721 ft | 396 kts | 184° |
| 2026-05-06 14:25 | 48.22160 | 14.42743 | 34727 ft | 396 kts | 184° |
| 2026-05-06 14:25 | 48.16660 | 14.43101 | 34704 ft | 396 kts | 184° |
| 2026-05-06 14:26 | 48.11162 | 14.43458 | 34728 ft | 395 kts | 184° |
| 2026-05-06 14:26 | 48.05659 | 14.43815 | 34733 ft | 396 kts | 184° |
| 2026-05-06 14:27 | 48.00155 | 14.44170 | 34739 ft | 396 kts | 184° |
| 2026-05-06 14:27 | 47.94649 | 14.44526 | 34748 ft | 396 kts | 184° |
| 2026-05-06 14:28 | 47.89138 | 14.44881 | 34744 ft | 397 kts | 184° |
| 2026-05-06 14:28 | 47.83624 | 14.45236 | 34777 ft | 397 kts | 184° |
| 2026-05-06 14:29 | 47.78071 | 14.45597 | 34770 ft | 401 kts | 184° |
| 2026-05-06 14:29 | 47.72495 | 14.45951 | 34748 ft | 402 kts | 184° |
| 2026-05-06 14:30 | 47.66925 | 14.46199 | 34760 ft | 399 kts | 185° |
| 2026-05-06 14:30 | 47.61393 | 14.46561 | 34798 ft | 400 kts | 183° |
| 2026-05-06 14:31 | 47.55811 | 14.46975 | 34823 ft | 402 kts | 184° |
| 2026-05-06 14:31 | 47.50200 | 14.47358 | 34801 ft | 406 kts | 183° |
| 2026-05-06 14:32 | 47.44543 | 14.47724 | 34829 ft | 409 kts | 183° |
| 2026-05-06 14:32 | 47.38845 | 14.48087 | 34858 ft | 411 kts | 183° |
| 2026-05-06 14:33 | 47.33125 | 14.48448 | 34850 ft | 412 kts | 183° |
| 2026-05-06 14:33 | 47.27394 | 14.48809 | 34855 ft | 411 kts | 183° |
| 2026-05-06 14:34 | 47.21684 | 14.49170 | 34865 ft | 409 kts | 183° |
| 2026-05-06 14:34 | 47.15991 | 14.49528 | 34861 ft | 409 kts | 183° |
| 2026-05-06 14:35 | 47.10309 | 14.49882 | 34870 ft | 409 kts | 183° |
| 2026-05-06 14:35 | 47.04655 | 14.50235 | 34859 ft | 409 kts | 183° |
| 2026-05-06 14:36 | 46.98976 | 14.50590 | 34860 ft | 407 kts | 183° |
| 2026-05-06 14:36 | 46.93307 | 14.50941 | 34868 ft | 408 kts | 182° |
| 2026-05-06 14:37 | 46.87627 | 14.51292 | 34876 ft | 409 kts | 182° |
| 2026-05-06 14:37 | 46.81937 | 14.51644 | 34881 ft | 410 kts | 182° |
| 2026-05-06 14:38 | 46.76230 | 14.51996 | 34885 ft | 411 kts | 182° |
| 2026-05-06 14:38 | 46.70506 | 14.52349 | 34879 ft | 411 kts | 182° |
| 2026-05-06 14:39 | 46.64786 | 14.52701 | 34871 ft | 412 kts | 182° |
| 2026-05-06 14:39 | 46.59056 | 14.53053 | 34887 ft | 412 kts | 182° |
| 2026-05-06 14:40 | 46.53324 | 14.53404 | 34887 ft | 412 kts | 182° |
| 2026-05-06 14:40 | 46.47584 | 14.53755 | 34895 ft | 413 kts | 182° |
| 2026-05-06 14:41 | 46.41846 | 14.54105 | 34896 ft | 412 kts | 182° |
| 2026-05-06 14:41 | 46.36124 | 14.54454 | 34929 ft | 412 kts | 182° |
| 2026-05-06 14:42 | 46.30399 | 14.54802 | 34914 ft | 410 kts | 182° |
| 2026-05-06 14:42 | 46.24701 | 14.55147 | 34943 ft | 410 kts | 182° |
| 2026-05-06 14:43 | 46.19009 | 14.55491 | 34935 ft | 409 kts | 182° |
| 2026-05-06 14:43 | 46.13324 | 14.55834 | 34937 ft | 408 kts | 182° |
| 2026-05-06 14:44 | 46.07658 | 14.56176 | 34937 ft | 408 kts | 182° |
| 2026-05-06 14:45 | 45.99206 | 14.56682 | 34944 ft | 407 kts | 182° |
| 2026-05-06 14:45 | 45.93550 | 14.57021 | 34936 ft | 407 kts | 182° |
| 2026-05-06 14:46 | 45.87892 | 14.57360 | 34936 ft | 407 kts | 182° |
| 2026-05-06 14:46 | 45.83147 | 14.57643 | 34929 ft | 407 kts | 182° |
| 2026-05-06 14:47 | 45.77535 | 14.57977 | 34937 ft | 407 kts | 182° |
| 2026-05-06 14:47 | 45.71869 | 14.58314 | 34945 ft | 408 kts | 182° |
| 2026-05-06 14:48 | 45.66194 | 14.58649 | 34946 ft | 408 kts | 182° |
| 2026-05-06 14:48 | 45.60510 | 14.58986 | 34943 ft | 410 kts | 182° |
| 2026-05-06 14:49 | 45.54809 | 14.59323 | 34957 ft | 410 kts | 182° |
| 2026-05-06 14:49 | 45.49091 | 14.59660 | 34959 ft | 412 kts | 182° |
| 2026-05-06 14:50 | 45.43365 | 14.59997 | 34961 ft | 412 kts | 182° |
| 2026-05-06 14:50 | 45.37638 | 14.60334 | 34971 ft | 412 kts | 181° |
| 2026-05-06 14:51 | 45.31909 | 14.60670 | 34976 ft | 413 kts | 181° |
| 2026-05-06 14:51 | 45.26161 | 14.61006 | 34975 ft | 414 kts | 181° |
| 2026-05-06 14:52 | 45.20403 | 14.61342 | 34963 ft | 415 kts | 182° |
| 2026-05-06 14:52 | 45.14636 | 14.61678 | 34967 ft | 414 kts | 182° |
| 2026-05-06 14:53 | 45.08878 | 14.62013 | 34969 ft | 414 kts | 182° |
| 2026-05-06 14:53 | 45.03123 | 14.62347 | 34967 ft | 414 kts | 182° |
| 2026-05-06 14:54 | 44.97364 | 14.62682 | 34968 ft | 414 kts | 183° |
| 2026-05-06 14:54 | 44.91607 | 14.63008 | 34964 ft | 414 kts | 182° |
| 2026-05-06 14:55 | 44.85857 | 14.63343 | 34958 ft | 413 kts | 182° |
| 2026-05-06 14:55 | 44.80103 | 14.63676 | 34960 ft | 414 kts | 183° |
| 2026-05-06 14:56 | 44.74388 | 14.64004 | 34969 ft | 414 kts | 183° |
| 2026-05-06 14:56 | 44.68621 | 14.64335 | 34962 ft | 415 kts | 183° |
| 2026-05-06 14:57 | 44.62854 | 14.64665 | 34960 ft | 415 kts | 183° |
| 2026-05-06 14:57 | 44.57074 | 14.64995 | 34964 ft | 416 kts | 183° |
| 2026-05-06 14:58 | 44.51289 | 14.65324 | 34964 ft | 416 kts | 184° |
| 2026-05-06 14:58 | 44.45491 | 14.65654 | 34963 ft | 417 kts | 184° |
| 2026-05-06 14:59 | 44.39695 | 14.65972 | 34969 ft | 416 kts | 184° |
| 2026-05-06 14:59 | 44.33908 | 14.66239 | 34964 ft | 416 kts | 184° |
| 2026-05-06 15:00 | 44.28124 | 14.66596 | 34958 ft | 416 kts | 184° |
| 2026-05-06 15:00 | 44.22354 | 14.66953 | 34963 ft | 414 kts | 184° |
| 2026-05-06 15:01 | 44.16593 | 14.67289 | 34946 ft | 413 kts | 184° |
| 2026-05-06 15:01 | 44.10857 | 14.67614 | 34943 ft | 412 kts | 184° |
| 2026-05-06 15:02 | 44.05168 | 14.67933 | 34950 ft | 411 kts | 184° |
| 2026-05-06 15:02 | 43.99431 | 14.68254 | 34936 ft | 409 kts | 185° |
| 2026-05-06 15:03 | 43.93741 | 14.68571 | 34941 ft | 408 kts | 185° |
| 2026-05-06 15:03 | 43.88115 | 14.68885 | 34944 ft | 407 kts | 185° |
| 2026-05-06 15:04 | 43.82454 | 14.69199 | 34945 ft | 407 kts | 185° |
| 2026-05-06 15:04 | 43.76797 | 14.69513 | 34946 ft | 407 kts | 185° |
| 2026-05-06 15:05 | 43.71134 | 14.69826 | 34944 ft | 407 kts | 185° |
| 2026-05-06 15:05 | 43.65467 | 14.70140 | 34927 ft | 408 kts | 185° |
| 2026-05-06 15:06 | 43.59797 | 14.70453 | 34941 ft | 408 kts | 185° |
| 2026-05-06 15:06 | 43.54110 | 14.70766 | 34940 ft | 409 kts | 185° |
| 2026-05-06 15:07 | 43.48405 | 14.71080 | 34937 ft | 410 kts | 185° |
| 2026-05-06 15:07 | 43.42697 | 14.71393 | 34930 ft | 411 kts | 184° |
| 2026-05-06 15:08 | 43.36975 | 14.71707 | 34936 ft | 412 kts | 184° |
| 2026-05-06 15:08 | 43.31245 | 14.72021 | 34935 ft | 412 kts | 184° |
| 2026-05-06 15:09 | 43.25506 | 14.72334 | 34914 ft | 413 kts | 184° |
| 2026-05-06 15:09 | 43.19758 | 14.72648 | 34927 ft | 413 kts | 184° |
| 2026-05-06 15:10 | 43.14020 | 14.72961 | 34933 ft | 413 kts | 184° |
| 2026-05-06 15:10 | 43.08281 | 14.73273 | 34931 ft | 413 kts | 184° |
| 2026-05-06 15:11 | 43.02539 | 14.73584 | 34928 ft | 413 kts | 184° |
| 2026-05-06 15:11 | 42.96800 | 14.73895 | 34929 ft | 412 kts | 184° |
| 2026-05-06 15:12 | 42.91068 | 14.74204 | 34923 ft | 412 kts | 184° |
| 2026-05-06 15:12 | 42.85332 | 14.74513 | 34906 ft | 412 kts | 184° |
| 2026-05-06 15:13 | 42.79644 | 14.74819 | 34919 ft | 412 kts | 184° |
| 2026-05-06 15:13 | 42.73881 | 14.75129 | 34920 ft | 412 kts | 184° |
| 2026-05-06 15:14 | 42.68147 | 14.75436 | 34917 ft | 413 kts | 184° |
| 2026-05-06 15:14 | 42.62405 | 14.75743 | 34914 ft | 413 kts | 185° |
| 2026-05-06 15:15 | 42.56692 | 14.76048 | 34913 ft | 414 kts | 185° |
| 2026-05-06 15:15 | 42.50890 | 14.76357 | 34913 ft | 415 kts | 185° |
| 2026-05-06 15:16 | 42.45156 | 14.76662 | 34896 ft | 416 kts | 185° |
| 2026-05-06 15:16 | 42.39367 | 14.76969 | 34915 ft | 417 kts | 185° |
| 2026-05-06 15:17 | 42.33560 | 14.77276 | 34915 ft | 418 kts | 185° |
| 2026-05-06 15:17 | 42.27734 | 14.77585 | 34914 ft | 420 kts | 185° |
| 2026-05-06 15:18 | 42.21902 | 14.77851 | 34919 ft | 419 kts | 186° |
| 2026-05-06 15:18 | 42.16050 | 14.78211 | 34921 ft | 421 kts | 186° |
| 2026-05-06 15:19 | 42.10201 | 14.78519 | 34922 ft | 421 kts | 186° |
| 2026-05-06 15:19 | 42.04337 | 14.78821 | 34916 ft | 422 kts | 186° |
| 2026-05-06 15:20 | 41.98474 | 14.79127 | 34925 ft | 421 kts | 186° |
| 2026-05-06 15:20 | 41.92623 | 14.79433 | 34922 ft | 420 kts | 186° |
| 2026-05-06 15:21 | 41.86784 | 14.79739 | 34937 ft | 420 kts | 186° |
| 2026-05-06 15:21 | 41.80959 | 14.80043 | 34949 ft | 419 kts | 186° |
| 2026-05-06 15:22 | 41.75144 | 14.80345 | 34945 ft | 418 kts | 186° |
| 2026-05-06 15:22 | 41.69334 | 14.80648 | 34958 ft | 417 kts | 186° |
| 2026-05-06 15:23 | 41.63581 | 14.80787 | 34956 ft | 415 kts | 188° |
| 2026-05-06 15:23 | 41.57812 | 14.80735 | 34961 ft | 415 kts | 189° |
| 2026-05-06 15:24 | 41.52046 | 14.80704 | 34971 ft | 414 kts | 188° |
| 2026-05-06 15:24 | 41.46284 | 14.80699 | 34980 ft | 414 kts | 188° |
| 2026-05-06 15:25 | 41.40529 | 14.80700 | 34973 ft | 413 kts | 188° |
| 2026-05-06 15:25 | 41.34780 | 14.80699 | 34989 ft | 413 kts | 189° |
| 2026-05-06 15:26 | 41.29266 | 14.79487 | 34981 ft | 396 kts | 205° |
| 2026-05-06 15:26 | 41.24342 | 14.76537 | 34995 ft | 387 kts | 212° |
| 2026-05-06 15:27 | 41.19368 | 14.73668 | 34996 ft | 390 kts | 208° |
| 2026-05-06 15:27 | 41.14324 | 14.70989 | 34994 ft | 391 kts | 208° |
| 2026-05-06 15:28 | 41.09287 | 14.68298 | 34987 ft | 390 kts | 208° |
| 2026-05-06 15:28 | 41.04266 | 14.65586 | 35000 ft | 390 kts | 208° |
| 2026-05-06 15:29 | 40.99238 | 14.62856 | 35008 ft | 391 kts | 208° |
| 2026-05-06 15:29 | 40.94194 | 14.60119 | 35006 ft | 393 kts | 208° |
| 2026-05-06 15:30 | 40.89122 | 14.57372 | 35011 ft | 395 kts | 208° |
| 2026-05-06 15:30 | 40.84032 | 14.54620 | 34984 ft | 396 kts | 207° |
| 2026-05-06 15:31 | 40.78939 | 14.51871 | 35007 ft | 397 kts | 207° |
| 2026-05-06 15:31 | 40.73825 | 14.49114 | 35011 ft | 398 kts | 207° |
| 2026-05-06 15:32 | 40.66123 | 14.44978 | 35021 ft | 399 kts | 207° |
| 2026-05-06 15:32 | 40.60971 | 14.42212 | 35000 ft | 400 kts | 207° |
| 2026-05-06 15:33 | 40.55810 | 14.39443 | 35007 ft | 401 kts | 207° |
| 2026-05-06 15:33 | 40.51514 | 14.37143 | 35001 ft | 402 kts | 207° |
| 2026-05-06 15:34 | 40.45490 | 14.33926 | 35005 ft | 402 kts | 207° |
| 2026-05-06 15:34 | 40.40308 | 14.31163 | 35000 ft | 402 kts | 207° |
| 2026-05-06 15:35 | 40.35964 | 14.28851 | 35008 ft | 402 kts | 207° |
| 2026-05-06 15:35 | 40.30779 | 14.26095 | 35003 ft | 402 kts | 207° |
| 2026-05-06 15:36 | 40.25591 | 14.23342 | 34999 ft | 402 kts | 207° |
| 2026-05-06 15:36 | 40.20437 | 14.20611 | 35006 ft | 402 kts | 207° |
| 2026-05-06 15:37 | 40.15250 | 14.17868 | 35000 ft | 402 kts | 207° |
| 2026-05-06 15:37 | 40.10060 | 14.15128 | 34998 ft | 402 kts | 207° |
| 2026-05-06 15:38 | 40.04874 | 14.12394 | 34996 ft | 402 kts | 207° |
| 2026-05-06 15:38 | 39.99685 | 14.09663 | 34991 ft | 402 kts | 207° |
| 2026-05-06 15:39 | 39.94497 | 14.06936 | 34998 ft | 402 kts | 207° |
| 2026-05-06 15:39 | 39.89306 | 14.04213 | 34997 ft | 402 kts | 206° |
| 2026-05-06 15:40 | 39.84111 | 14.01493 | 34994 ft | 402 kts | 206° |
| 2026-05-06 15:40 | 39.79017 | 13.98835 | 34683 ft | 388 kts | 206° |
| 2026-05-06 15:41 | 39.76542 | 13.97545 | 34392 ft | 381 kts | 206° |
| 2026-05-06 15:41 | 39.74095 | 13.96268 | 34020 ft | 377 kts | 206° |
| 2026-05-06 15:41 | 39.69326 | 13.93780 | 34077 ft | 373 kts | 206° |
| 2026-05-06 15:42 | 39.64429 | 13.91221 | 34086 ft | 385 kts | 206° |
| 2026-05-06 15:42 | 39.59379 | 13.88593 | 34082 ft | 397 kts | 206° |
| 2026-05-06 15:43 | 39.54174 | 13.85892 | 33886 ft | 413 kts | 206° |
| 2026-05-06 15:43 | 39.51471 | 13.84490 | 33649 ft | 423 kts | 206° |
| 2026-05-06 15:43 | 39.48712 | 13.83062 | 33385 ft | 431 kts | 205° |
| 2026-05-06 15:44 | 39.45911 | 13.81616 | 33112 ft | 433 kts | 205° |
| 2026-05-06 15:44 | 39.43119 | 13.80176 | 32841 ft | 432 kts | 205° |
| 2026-05-06 15:44 | 39.40316 | 13.78759 | 32559 ft | 433 kts | 205° |
| 2026-05-06 15:44 | 39.37485 | 13.77441 | 32207 ft | 432 kts | 204° |
| 2026-05-06 15:45 | 39.34638 | 13.76169 | 31449 ft | 433 kts | 203° |
| 2026-05-06 15:45 | 39.31788 | 13.74909 | 30715 ft | 433 kts | 203° |
| 2026-05-06 15:45 | 39.28936 | 13.73643 | 29941 ft | 434 kts | 203° |
| 2026-05-06 15:45 | 39.26078 | 13.72364 | 29036 ft | 435 kts | 203° |
| 2026-05-06 15:46 | 39.23240 | 13.71088 | 28474 ft | 428 kts | 203° |
| 2026-05-06 15:46 | 39.20443 | 13.69826 | 27841 ft | 424 kts | 203° |
| 2026-05-06 15:46 | 39.17677 | 13.68577 | 27295 ft | 419 kts | 203° |
| 2026-05-06 15:46 | 39.14946 | 13.67341 | 26726 ft | 414 kts | 203° |
| 2026-05-06 15:47 | 39.12241 | 13.66118 | 26175 ft | 410 kts | 202° |
| 2026-05-06 15:47 | 39.09559 | 13.64906 | 25631 ft | 406 kts | 202° |
| 2026-05-06 15:47 | 39.06906 | 13.63708 | 25091 ft | 403 kts | 202° |
| 2026-05-06 15:47 | 39.04273 | 13.62520 | 24564 ft | 399 kts | 202° |
| 2026-05-06 15:48 | 39.01663 | 13.61343 | 24030 ft | 397 kts | 202° |
| 2026-05-06 15:48 | 38.99058 | 13.60170 | 23446 ft | 395 kts | 202° |
| 2026-05-06 15:48 | 38.96474 | 13.59007 | 22849 ft | 392 kts | 202° |
| 2026-05-06 15:48 | 38.93907 | 13.57853 | 22288 ft | 389 kts | 202° |
| 2026-05-06 15:49 | 38.91370 | 13.56714 | 21758 ft | 385 kts | 202° |
| 2026-05-06 15:49 | 38.88886 | 13.55597 | 21229 ft | 381 kts | 203° |
| 2026-05-06 15:49 | 38.86535 | 13.54099 | 20714 ft | 374 kts | 216° |
| 2026-05-06 15:49 | 38.84519 | 13.52036 | 20076 ft | 372 kts | 224° |
| 2026-05-06 15:50 | 38.82814 | 13.49530 | 19452 ft | 372 kts | 235° |
| 2026-05-06 15:50 | 38.81398 | 13.46764 | 18895 ft | 370 kts | 237° |
| 2026-05-06 15:50 | 38.80017 | 13.43992 | 18384 ft | 367 kts | 237° |
| 2026-05-06 15:50 | 38.78653 | 13.41245 | 17819 ft | 364 kts | 237° |
| 2026-05-06 15:51 | 38.77296 | 13.38524 | 17277 ft | 360 kts | 236° |
| 2026-05-06 15:51 | 38.75947 | 13.35834 | 16776 ft | 356 kts | 236° |
| 2026-05-06 15:51 | 38.74613 | 13.33186 | 16287 ft | 352 kts | 236° |
| 2026-05-06 15:51 | 38.73244 | 13.30608 | 15708 ft | 350 kts | 230° |
| 2026-05-06 15:52 | 38.71532 | 13.28393 | 15076 ft | 350 kts | 219° |
| 2026-05-06 15:52 | 38.69624 | 13.26485 | 14565 ft | 347 kts | 218° |
| 2026-05-06 15:52 | 38.67743 | 13.24627 | 13997 ft | 337 kts | 217° |
| 2026-05-06 15:52 | 38.65898 | 13.22802 | 13076 ft | 335 kts | 217° |
| 2026-05-06 15:53 | 38.64054 | 13.20973 | 12120 ft | 335 kts | 217° |
| 2026-05-06 15:53 | 38.62249 | 13.19176 | 11633 ft | 323 kts | 217° |
| 2026-05-06 15:53 | 38.60522 | 13.17454 | 11301 ft | 308 kts | 217° |
| 2026-05-06 15:53 | 38.58854 | 13.15789 | 10799 ft | 300 kts | 217° |
| 2026-05-06 15:54 | 38.57240 | 13.14178 | 10505 ft | 287 kts | 217° |
| 2026-05-06 15:54 | 38.55691 | 13.12632 | 10300 ft | 279 kts | 217° |
| 2026-05-06 15:54 | 38.54179 | 13.11123 | 10136 ft | 272 kts | 217° |
| 2026-05-06 15:54 | 38.52713 | 13.09662 | 10023 ft | 263 kts | 217° |
| 2026-05-06 15:55 | 38.51281 | 13.08235 | 9734 ft | 261 kts | 217° |
| 2026-05-06 15:55 | 38.49858 | 13.06817 | 9446 ft | 258 kts | 217° |
| 2026-05-06 15:55 | 38.48443 | 13.05409 | 9152 ft | 257 kts | 217° |
| 2026-05-06 15:55 | 38.47042 | 13.04015 | 8863 ft | 255 kts | 217° |
| 2026-05-06 15:56 | 38.45648 | 13.02628 | 8577 ft | 253 kts | 216° |
| 2026-05-06 15:56 | 38.44265 | 13.01253 | 8293 ft | 252 kts | 216° |
| 2026-05-06 15:56 | 38.42886 | 12.99882 | 8010 ft | 251 kts | 216° |
| 2026-05-06 15:56 | 38.41512 | 12.98518 | 7726 ft | 250 kts | 216° |
| 2026-05-06 15:57 | 38.40141 | 12.97157 | 7446 ft | 249 kts | 216° |
| 2026-05-06 15:57 | 38.38773 | 12.95799 | 7149 ft | 249 kts | 216° |
| 2026-05-06 15:57 | 38.37403 | 12.94440 | 6863 ft | 249 kts | 216° |
| 2026-05-06 15:57 | 38.36035 | 12.93084 | 6589 ft | 249 kts | 216° |
| 2026-05-06 15:58 | 38.34670 | 12.91731 | 6317 ft | 248 kts | 216° |
| 2026-05-06 15:58 | 38.33309 | 12.90382 | 6045 ft | 247 kts | 216° |
| 2026-05-06 15:58 | 38.31976 | 12.89062 | 5801 ft | 246 kts | 216° |
| 2026-05-06 15:58 | 38.30633 | 12.87732 | 5653 ft | 240 kts | 216° |
| 2026-05-06 15:59 | 38.29336 | 12.86448 | 5552 ft | 232 kts | 216° |
| 2026-05-06 15:59 | 38.28086 | 12.85213 | 5499 ft | 221 kts | 216° |
| 2026-05-06 15:59 | 38.26903 | 12.84043 | 5388 ft | 210 kts | 216° |
| 2026-05-06 15:59 | 38.25779 | 12.82935 | 5308 ft | 201 kts | 214° |
| 2026-05-06 16:00 | 38.24524 | 12.82299 | 5174 ft | 193 kts | 177° |
| 2026-05-06 16:00 | 38.23269 | 12.82672 | 5104 ft | 182 kts | 159° |
| 2026-05-06 16:00 | 38.22118 | 12.83272 | 4931 ft | 176 kts | 157° |
| 2026-05-06 16:00 | 38.20966 | 12.83903 | 4426 ft | 190 kts | 156° |
| 2026-05-06 16:01 | 38.19693 | 12.84601 | 3763 ft | 204 kts | 156° |
| 2026-05-06 16:01 | 38.18433 | 12.85289 | 3552 ft | 191 kts | 156° |
| 2026-05-06 16:01 | 38.17249 | 12.85931 | 3440 ft | 178 kts | 155° |
| 2026-05-06 16:01 | 38.16156 | 12.86523 | 3340 ft | 164 kts | 155° |
| 2026-05-06 16:02 | 38.15123 | 12.87082 | 3293 ft | 162 kts | 155° |
| 2026-05-06 16:02 | 38.14057 | 12.87661 | 3241 ft | 171 kts | 155° |
| 2026-05-06 16:02 | 38.12955 | 12.88257 | 3181 ft | 173 kts | 155° |
| 2026-05-06 16:02 | 38.11946 | 12.89036 | 3116 ft | 171 kts | 127° |
| 2026-05-06 16:03 | 38.11686 | 12.90481 | 3071 ft | 179 kts | 83° |
| 2026-05-06 16:03 | 38.12022 | 12.92050 | 2824 ft | 186 kts | 78° |
| 2026-05-06 16:03 | 38.12411 | 12.93619 | 2558 ft | 186 kts | 73° |
| 2026-05-06 16:03 | 38.12885 | 12.95106 | 2328 ft | 182 kts | 70° |
| 2026-05-06 16:04 | 38.13377 | 12.96570 | 2081 ft | 173 kts | 70° |
| 2026-05-06 16:04 | 38.13834 | 12.97928 | 1842 ft | 163 kts | 70° |
| 2026-05-06 16:04 | 38.14254 | 12.99186 | 1688 ft | 153 kts | 69° |
| 2026-05-06 16:04 | 38.14654 | 13.00381 | 1449 ft | 143 kts | 67° |
| 2026-05-06 16:05 | 38.15041 | 13.01535 | 1270 ft | 138 kts | 65° |
| 2026-05-06 16:05 | 38.15407 | 13.02628 | 1091 ft | 137 kts | 65° |
| 2026-05-06 16:05 | 38.15787 | 13.03757 | 924 ft | 140 kts | 64° |
| 2026-05-06 16:05 | 38.16169 | 13.04888 | 754 ft | 135 kts | 65° |
| 2026-05-06 16:06 | 38.16539 | 13.05971 | 629 ft | 135 kts | 65° |
| 2026-05-06 16:06 | 38.16902 | 13.07074 | 414 ft | 134 kts | 66° |
| 2026-05-06 16:06 | 38.17263 | 13.08152 | 216 ft | 130 kts | 66° |
| 2026-05-06 16:06 | 38.17604 | 13.09194 | 86 ft | 125 kts | 66° |
| 2026-05-06 16:07 | 38.17920 | 13.10105 | 61 ft | 97 kts | 67° |
| 2026-05-06 16:07 | 38.18099 | 13.10637 | 66 ft | 27 kts | 66° |
| 2026-05-06 16:07 | 38.18142 | 13.10724 | 66 ft | 5 kts | 347° |
| 2026-05-06 16:07 | 38.18168 | 13.10696 | 66 ft | 6 kts | 290° |
| 2026-05-06 16:08 | 38.18179 | 13.10617 | 61 ft | 12 kts | 276° |
| 2026-05-06 16:08 | 38.18190 | 13.10501 | 59 ft | 13 kts | 277° |
| 2026-05-06 16:08 | 38.18209 | 13.10394 | 61 ft | 12 kts | 307° |
| 2026-05-06 16:08 | 38.18279 | 13.10346 | 58 ft | 11 kts | 334° |
| 2026-05-06 16:09 | 38.18341 | 13.10311 | 61 ft | 8 kts | 338° |
| 2026-05-06 16:09 | 38.18386 | 13.10287 | 60 ft | 6 kts | 340° |
| 2026-05-06 16:09 | 38.18404 | 13.10303 | 62 ft | 3 kts | 63° |
| 2026-05-06 16:09 | 38.18413 | 13.10332 | 62 ft | 3 kts | 67° |
| 2026-05-06 16:10 | 38.18422 | 13.10359 | 62 ft | 3 kts | 67° |
| 2026-05-06 16:10 | 38.18431 | 13.10385 | 64 ft | 3 kts | 66° |
| 2026-05-06 16:10 | 38.18432 | 13.10388 | 64 ft | 0 kts | 66° |